»·PEaware :: TWY250 KBOS-KMYR

TWY250 :: KBOS-KMYR

FLIGHT INFORMATION

Flight Status: Arrived
Operator: Unknown
More flights by this operator :: More flights under this callsign
Pilot: Anonymous 13363 (13363)
Aircraft: BOMBARDIER BD-100 CHALLENGER 300
(CL30)
More flights by this aircraft type
Origin: KBOS Logan Intl
United States
Destination: KMYR Myrtle Beach Intl
United States
More flights between these airports :: More routes between these airports
Route: SSOXS5 SSOXS BUZRD SEY HTO J174 ILM CRE
File this flight plan on PilotEdge
Remarks:
Altitude:
(Current/Filed)
40,000ft
Speed:
(Current/Filed)
468kts
Departed: 08-Feb-18 08:48 PM
Arrived: 08-Feb-18 09:56 PM
Distance/Time
Traveled:
641nm/1:08
Distance/Time
To Go:
Arrived

Flight Plot

Page will automatically refresh every two minutes.

Flight plan parsing failed; only flown route is shown


Map Options




Map Legend


Flown Route
Filed Route
Departure Airport
Arrival Airport
Navaid (VOR, NDB)
Fix

Horizontal Profiles

Position Reports

Time Latitude Longitude Heading Altitude Ground
Speed
08-Feb-18 20:54 41.091826 -71.808056 244 31549ft 500kts
08-Feb-18 20:55 41.034844 -71.974478 246 32943ft 499kts
08-Feb-18 20:56 40.994178 -72.094828 246 33234ft 516kts
08-Feb-18 20:57 40.934139 -72.267784 239 34094ft 525kts
08-Feb-18 20:58 40.839251 -72.404701 217 34818ft 526kts
08-Feb-18 20:59 40.729153 -72.533157 218 35505ft 535kts
08-Feb-18 21:00 40.624515 -72.657237 216 36044ft 544kts
08-Feb-18 21:01 40.527250 -72.768924 216 36791ft 543kts
08-Feb-18 21:02 40.413243 -72.899162 216 37308ft 551kts
08-Feb-18 21:03 40.297186 -73.031118 216 37818ft 558kts
08-Feb-18 21:04 40.180679 -73.162960 216 38528ft 560kts
08-Feb-18 21:05 40.063819 -73.294593 216 39738ft 549kts
08-Feb-18 21:06 39.947556 -73.424911 216 40195ft 559kts
08-Feb-18 21:07 39.830093 -73.555966 216 40447ft 571kts
08-Feb-18 21:08 39.710959 -73.688294 216 40430ft 585kts
08-Feb-18 21:09 39.587903 -73.824303 216 40434ft 589kts
08-Feb-18 21:10 39.463428 -73.961216 216 40438ft 591kts
08-Feb-18 21:11 39.338683 -74.097749 216 40444ft 592kts
08-Feb-18 21:12 39.213835 -74.233731 216 40449ft 592kts
08-Feb-18 21:13 39.088523 -74.369562 216 40454ft 593kts
08-Feb-18 21:14 38.962963 -74.505009 216 40460ft 592kts
08-Feb-18 21:15 38.840372 -74.636519 216 40445ft 591kts
08-Feb-18 21:16 38.776503 -74.704803 215 40426ft 589kts
08-Feb-18 21:17 38.651862 -74.837659 215 40431ft 585kts
08-Feb-18 21:18 38.527801 -74.969317 215 40436ft 582kts
08-Feb-18 21:19 38.404285 -75.099795 215 40442ft 581kts
08-Feb-18 21:20 38.280658 -75.229795 215 40447ft 580kts
08-Feb-18 21:21 38.157231 -75.358993 215 40453ft 579kts
08-Feb-18 21:22 38.030586 -75.481853 205 40462ft 572kts
08-Feb-18 21:23 37.896900 -75.584956 204 40462ft 572kts
08-Feb-18 21:24 37.780209 -75.673018 203 40470ft 568kts
08-Feb-18 21:25 37.657694 -75.765140 203 40879ft 555kts
08-Feb-18 21:26 37.525350 -75.862179 195 41030ft 540kts
08-Feb-18 21:27 37.390107 -75.935144 193 41371ft 536kts
08-Feb-18 21:28 37.253848 -76.008058 193 41907ft 534kts
08-Feb-18 21:29 37.117501 -76.080703 193 42213ft 539kts
08-Feb-18 21:30 36.980721 -76.153340 193 42794ft 537kts
08-Feb-18 21:31 36.845214 -76.226333 195 43064ft 544kts
08-Feb-18 21:31 36.730729 -76.289863 195 43276ft 547kts
08-Feb-18 21:32 36.592117 -76.366528 195 43447ft 553kts
08-Feb-18 21:34 36.427945 -76.456948 195 43453ft 566kts
08-Feb-18 21:35 36.283788 -76.536008 195 43459ft 576kts
08-Feb-18 21:35 36.162052 -76.602522 195 43463ft 585kts
08-Feb-18 21:36 36.018010 -76.680940 195 43444ft 594kts
08-Feb-18 21:38 35.870242 -76.761038 195 43426ft 598kts
08-Feb-18 21:38 35.745118 -76.828631 195 43427ft 592kts
08-Feb-18 21:39 35.596120 -76.908787 195 43433ft 587kts
08-Feb-18 21:40 35.448397 -76.987944 194 43438ft 582kts
08-Feb-18 21:41 35.302028 -77.066068 194 43443ft 576kts
08-Feb-18 21:42 35.156820 -77.143260 194 43448ft 570kts
08-Feb-18 21:43 35.013417 -77.219198 194 43454ft 567kts
08-Feb-18 21:44 34.867382 -77.296141 195 41289ft 601kts
08-Feb-18 21:45 34.737874 -77.364248 195 39051ft 610kts
08-Feb-18 21:46 34.588116 -77.456179 210 36607ft 614kts
08-Feb-18 21:47 34.479705 -77.612043 241 34182ft 616kts
08-Feb-18 21:48 34.397725 -77.783649 236 31702ft 575kts
08-Feb-18 21:49 34.314117 -77.933577 229 29172ft 513kts
08-Feb-18 21:50 34.232846 -78.063848 228 26681ft 469kts
08-Feb-18 21:51 34.157541 -78.183561 228 24205ft 435kts
08-Feb-18 21:52 34.086842 -78.295321 231 21738ft 411kts
08-Feb-18 21:53 34.019799 -78.401118 234 19308ft 397kts
08-Feb-18 21:54 33.951177 -78.509201 235 16900ft 415kts
08-Feb-18 21:55 33.884413 -78.613977 236 14463ft 385kts
08-Feb-18 21:56 33.829516 -78.710418 264 12015ft 339kts
08-Feb-18 21:57 33.839203 -78.813455 284 9523ft 297kts
08-Feb-18 21:58 33.832051 -78.902118 237 6971ft 241kts
08-Feb-18 21:59 33.784333 -78.945944 222 4116ft 202kts
08-Feb-18 22:00 33.735616 -78.943251 167 1671ft 168kts
08-Feb-18 22:01 33.696225 -78.932375 171 94ft 126kts
08-Feb-18 22:02 33.673420 -78.926891 176 23ft 29kts

Navigation Log

Ident Type
Flight plan parsing failed, navigation log unavailable